Time;durP1;ratioP1;P1;durP2;ratioP2;P2;SDS_P1;SDS_P2;PMS_P1;PMS_P2;Temp;Humidity;BMP_temperature;BMP_pressure;BME280_temperature;BME280_humidity;BME280_pressure;Samples;Min_cycle;Max_cycle;Signal;HPM_P1;HPM_P2
2021/11/05 00:02:07;;;;;;;75.15;26.30;;;;;;;11.28;91.58;100096.47;5050613;28;20025;-52
2021/11/05 00:04:32;;;;;;;156.82;27.50;;;;;;;11.45;89.39;100086.28;5050755;28;20098;-48
2021/11/05 00:07:00;;;;;;;94.93;26.10;;;;;;;11.19;91.42;100087.00;5051037;28;20032;-48
2021/11/05 00:09:26;;;;;;;94.10;25.92;;;;;;;11.37;91.69;100077.66;5050687;28;20478;-48
2021/11/05 00:11:51;;;;;;;104.97;26.42;;;;;;;11.17;91.56;100083.72;5050159;28;20468;-51
2021/11/05 00:14:16;;;;;;;164.93;27.50;;;;;;;11.29;91.08;100084.81;5050740;28;20449;-49
2021/11/05 00:16:42;;;;;;;120.60;26.58;;;;;;;11.19;91.54;100091.53;5050771;28;20483;-49
2021/11/05 00:19:08;;;;;;;200.88;27.48;;;;;;;11.06;92.69;100084.28;5051088;28;20104;-49
2021/11/05 00:21:33;;;;;;;203.73;26.25;;;;;;;10.94;93.46;100090.16;5051435;28;20035;-49
2021/11/05 00:23:59;;;;;;;143.82;27.77;;;;;;;11.13;91.91;100087.81;5051232;28;20492;-49
2021/11/05 00:26:24;;;;;;;144.52;27.70;;;;;;;11.00;93.02;100075.25;5050959;28;20025;-49
2021/11/05 00:28:50;;;;;;;100.18;26.83;;;;;;;11.02;93.21;100081.19;5050798;28;20457;-48
2021/11/05 00:31:15;;;;;;;77.03;23.60;;;;;;;10.99;92.65;100086.94;5048584;28;20051;-48
2021/11/05 00:33:41;;;;;;;72.32;23.55;;;;;;;11.12;92.11;100092.31;5050933;28;20060;-50
2021/11/05 00:36:13;;;;;;;132.70;25.90;;;;;;;10.84;94.15;100089.72;5050994;28;20422;-51
2021/11/05 00:38:42;;;;;;;124.85;25.52;;;;;;;11.01;93.04;100100.06;5050888;28;20035;-48
2021/11/05 00:41:08;;;;;;;153.15;27.08;;;;;;;10.98;93.34;100089.78;5050925;28;20405;-47
2021/11/05 00:43:33;;;;;;;124.88;27.25;;;;;;;10.86;93.40;100087.69;5051001;28;20029;-48
2021/11/05 00:45:59;;;;;;;74.75;25.00;;;;;;;10.78;94.26;100077.19;5050411;28;20025;-48
2021/11/05 00:48:24;;;;;;;71.50;25.25;;;;;;;10.74;94.47;100086.59;5050764;28;20083;-49
2021/11/05 00:50:50;;;;;;;76.38;25.00;;;;;;;10.72;94.40;100084.13;5050744;28;20021;-49
2021/11/05 00:53:15;;;;;;;74.97;24.92;;;;;;;10.91;93.31;100097.75;5050625;28;20412;-48
2021/11/05 00:55:40;;;;;;;80.72;25.30;;;;;;;11.00;92.89;100083.22;5049525;28;20036;-48
2021/11/05 00:58:07;;;;;;;78.55;25.60;;;;;;;11.17;92.11;100082.91;5050487;28;20028;-49
2021/11/05 01:00:33;;;;;;;69.13;24.77;;;;;;;11.03;93.37;100090.03;5050278;28;20021;-48
2021/11/05 01:02:59;;;;;;;67.07;25.85;;;;;;;11.02;92.73;100085.72;5050515;28;20032;-49
2021/11/05 01:05:25;;;;;;;84.38;25.55;;;;;;;11.04;93.43;100089.84;5050609;28;20021;-50
2021/11/05 01:07:50;;;;;;;81.47;26.50;;;;;;;10.99;93.00;100091.44;5050575;28;20090;-49
2021/11/05 01:10:16;;;;;;;88.45;25.23;;;;;;;11.04;93.25;100086.31;5050435;28;20029;-48
2021/11/05 01:12:41;;;;;;;111.55;26.50;;;;;;;11.37;91.63;100086.47;5050434;28;20485;-48
2021/11/05 01:15:07;;;;;;;130.13;24.25;;;;;;;11.38;90.18;100084.63;5050228;28;20104;-48
2021/11/05 01:17:34;;;;;;;75.00;23.65;;;;;;;11.19;91.22;100073.69;5050343;28;20035;-48
2021/11/05 01:19:59;;;;;;;66.47;22.67;;;;;;;11.03;92.30;100084.69;5050243;28;20053;-49
2021/11/05 01:22:25;;;;;;;75.88;24.25;;;;;;;11.08;92.18;100079.59;5050250;28;20032;-51
2021/11/05 01:24:50;;;;;;;73.05;23.17;;;;;;;11.10;92.39;100072.22;5050364;28;20488;-48
2021/11/05 01:27:16;;;;;;;95.70;24.80;;;;;;;11.09;92.44;100062.59;5050369;28;20485;-49
2021/11/05 01:29:41;;;;;;;86.57;26.77;;;;;;;11.23;91.31;100066.13;5050566;28;20326;-48
2021/11/05 01:32:07;;;;;;;85.07;25.85;;;;;;;11.24;91.37;100068.59;5050279;28;20056;-48
2021/11/05 01:34:33;;;;;;;75.60;23.73;;;;;;;11.17;92.16;100057.09;5050030;28;20049;-48
2021/11/05 01:36:59;;;;;;;70.22;23.60;;;;;;;11.15;91.42;100061.78;5050273;28;20462;-48
2021/11/05 01:39:24;;;;;;;73.20;23.60;;;;;;;11.06;91.49;100074.47;5050330;28;20094;-48
2021/11/05 01:41:50;;;;;;;86.63;22.95;;;;;;;10.91;93.38;100073.78;5049972;28;20032;-48
2021/11/05 01:44:16;;;;;;;61.83;22.65;;;;;;;11.07;92.36;100060.13;5049457;28;20104;-49
2021/11/05 01:46:42;;;;;;;60.50;21.77;;;;;;;11.07;92.33;100062.78;5049851;28;20076;-48
2021/11/05 01:49:11;;;;;;;62.50;22.35;;;;;;;11.04;91.58;100063.22;5049851;28;20025;-48
2021/11/05 01:51:37;;;;;;;64.68;23.23;;;;;;;11.25;91.69;100066.75;5049767;28;20091;-48
2021/11/05 01:54:08;;;;;;;72.97;23.20;;;;;;;11.13;91.52;100047.84;5049780;28;20024;-49
2021/11/05 01:56:35;;;;;;;63.85;21.85;;;;;;;11.18;90.69;100068.59;5049913;28;20013;-51
2021/11/05 01:59:01;;;;;;;96.88;23.60;;;;;;;11.09;91.54;100059.94;5049858;28;20033;-52
2021/11/05 02:01:26;;;;;;;62.25;22.40;;;;;;;10.92;91.97;100059.44;5049843;28;20160;-49
2021/11/05 02:03:52;;;;;;;66.68;23.13;;;;;;;11.05;93.07;100062.16;5049801;28;20393;-49
2021/11/05 02:06:21;;;;;;;70.55;24.05;;;;;;;11.10;92.24;100070.41;5050119;28;20016;-48
2021/11/05 02:08:47;;;;;;;107.30;23.83;;;;;;;11.20;90.93;100067.34;5050230;28;20028;-49
2021/11/05 02:11:12;;;;;;;101.45;24.10;;;;;;;11.21;91.31;100068.16;5048800;28;20029;-49
2021/11/05 02:13:38;;;;;;;68.95;23.02;;;;;;;11.26;90.46;100069.22;5048682;28;20029;-48
2021/11/05 02:16:04;;;;;;;69.25;23.77;;;;;;;11.10;91.46;100059.75;5048648;28;20036;-51
2021/11/05 02:18:29;;;;;;;67.22;23.05;;;;;;;10.96;91.57;100056.19;5049285;28;20025;-49
2021/11/05 02:20:55;;;;;;;63.85;23.58;;;;;;;10.91;90.83;100061.28;5049894;28;20109;-49
2021/11/05 02:23:25;;;;;;;65.03;23.77;;;;;;;11.04;92.80;100068.53;5049756;28;20057;-51
2021/11/05 02:25:50;;;;;;;72.82;22.70;;;;;;;11.04;92.16;100062.34;5029617;28;20049;-51
2021/11/05 02:28:16;;;;;;;69.43;23.15;;;;;;;11.06;92.32;100066.50;5029436;28;20474;-51
2021/11/05 02:30:41;;;;;;;90.15;23.40;;;;;;;11.19;91.68;100076.34;5031060;28;20029;-51
2021/11/05 02:33:08;;;;;;;68.57;22.50;;;;;;;11.11;92.51;100074.69;5049467;28;20057;-52
2021/11/05 02:35:34;;;;;;;66.32;22.55;;;;;;;11.09;91.55;100073.25;5051475;28;20068;-49
2021/11/05 02:37:59;;;;;;;65.95;21.05;;;;;;;10.99;91.72;100070.16;5053474;28;20108;-49
2021/11/05 02:40:25;;;;;;;70.25;21.90;;;;;;;10.98;92.28;100057.84;5051682;28;20400;-50
2021/11/05 02:42:50;;;;;;;63.85;22.67;;;;;;;11.08;90.94;100068.94;5053166;28;20032;-49
2021/11/05 02:45:16;;;;;;;65.00;19.70;;;;;;;11.00;91.13;100071.78;5053111;28;20476;-50
2021/11/05 02:47:44;;;;;;;63.58;21.08;;;;;;;10.93;91.89;100075.22;5052948;28;20029;-48
2021/11/05 02:50:12;;;;;;;56.45;21.38;;;;;;;10.90;92.83;100072.13;5052872;28;20091;-48
2021/11/05 02:52:38;;;;;;;66.07;22.13;;;;;;;10.98;92.50;100073.81;5052910;28;20036;-49
2021/11/05 02:55:05;;;;;;;53.75;19.70;;;;;;;10.95;91.58;100070.53;5052901;28;20033;-49
2021/11/05 02:57:30;;;;;;;52.28;20.30;;;;;;;10.86;91.88;100077.03;5052755;28;20064;-49
2021/11/05 02:59:56;;;;;;;58.28;20.20;;;;;;;10.99;91.75;100080.78;5052795;28;20051;-49
2021/11/05 03:02:23;;;;;;;58.85;20.20;;;;;;;10.95;92.77;100073.19;5052919;28;20068;-49
2021/11/05 03:04:49;;;;;;;55.08;20.50;;;;;;;11.01;91.87;100062.78;5052793;28;20029;-50
2021/11/05 03:07:14;;;;;;;49.70;19.95;;;;;;;10.94;92.48;100076.84;5052825;28;20024;-49
2021/11/05 03:09:40;;;;;;;53.53;20.85;;;;;;;11.12;90.86;100075.53;5052639;28;20530;-52
2021/11/05 03:12:07;;;;;;;56.42;20.73;;;;;;;11.07;91.58;100078.78;5052463;28;20024;-49
2021/11/05 03:14:33;;;;;;;48.50;18.83;;;;;;;10.98;92.04;100089.78;5052380;28;20025;-49
2021/11/05 03:16:58;;;;;;;57.90;20.45;;;;;;;11.07;91.20;100085.94;5052336;28;20033;-50
2021/11/05 03:19:24;;;;;;;71.82;21.33;;;;;;;11.02;92.31;100085.72;5050986;28;20040;-50
2021/11/05 03:21:49;;;;;;;61.05;21.40;;;;;;;11.00;91.68;100087.75;5052466;28;20036;-49
2021/11/05 03:24:15;;;;;;;55.53;21.38;;;;;;;11.00;90.64;100082.41;5052316;28;20756;-51
2021/11/05 03:26:41;;;;;;;49.72;20.40;;;;;;;10.79;91.40;100070.84;5052015;28;20025;-51
2021/11/05 03:29:06;;;;;;;68.82;21.73;;;;;;;10.83;92.78;100073.94;5051571;28;20055;-50
2021/11/05 03:31:32;;;;;;;53.75;19.63;;;;;;;10.72;92.39;100078.81;5052347;28;20481;-49
2021/11/05 03:33:58;;;;;;;56.80;21.42;;;;;;;10.73;93.17;100082.28;5052411;28;20072;-49
2021/11/05 03:36:24;;;;;;;53.60;20.65;;;;;;;10.88;92.90;100085.63;5052101;28;20057;-51
2021/11/05 03:38:50;;;;;;;59.15;21.73;;;;;;;11.03;90.82;100085.50;5052129;28;20413;-50
2021/11/05 03:41:15;;;;;;;48.33;20.25;;;;;;;10.85;91.74;100080.72;5052035;28;20040;-51
2021/11/05 03:43:41;;;;;;;62.22;21.65;;;;;;;10.73;93.44;100090.28;5051874;28;20610;-50
2021/11/05 03:46:06;;;;;;;54.65;21.30;;;;;;;10.83;93.01;100096.06;5051171;28;20036;-51
2021/11/05 03:48:35;;;;;;;49.50;20.63;;;;;;;10.87;92.69;100097.31;5051284;28;20016;-51
2021/11/05 03:51:01;;;;;;;50.72;20.25;;;;;;;10.86;92.13;100097.53;5051542;28;20029;-50
2021/11/05 03:53:27;;;;;;;57.60;21.15;;;;;;;10.84;93.09;100088.91;5050315;28;20029;-50
2021/11/05 03:55:53;;;;;;;64.07;20.45;;;;;;;10.84;92.96;100091.56;5052004;28;20029;-49
2021/11/05 03:58:18;;;;;;;84.07;20.67;;;;;;;10.59;94.00;100088.56;5051537;28;20494;-50
2021/11/05 04:00:44;;;;;;;47.33;20.27;;;;;;;10.59;93.95;100091.22;5051621;28;20029;-51
2021/11/05 04:03:09;;;;;;;52.75;20.98;;;;;;;10.70;93.90;100103.97;5051236;28;20064;-51
2021/11/05 04:05:35;;;;;;;54.50;20.27;;;;;;;10.80;93.47;100090.31;5051391;28;20116;-50
2021/11/05 04:08:00;;;;;;;54.70;20.95;;;;;;;10.92;92.61;100081.56;5051812;28;20032;-52
2021/11/05 04:10:25;;;;;;;59.20;20.00;;;;;;;10.99;91.80;100080.78;5051269;28;20032;-49
2021/11/05 04:12:51;;;;;;;47.88;19.67;;;;;;;10.96;91.24;100088.13;5051601;28;20029;-50
2021/11/05 04:15:16;;;;;;;59.08;20.80;;;;;;;10.92;91.96;100086.06;5051331;28;20059;-49
2021/11/05 04:17:42;;;;;;;54.55;20.48;;;;;;;11.01;91.64;100079.56;5051405;28;20021;-49
2021/11/05 04:20:08;;;;;;;56.92;20.30;;;;;;;10.87;92.73;100068.03;5051290;28;20021;-49
2021/11/05 04:22:34;;;;;;;54.60;21.08;;;;;;;11.02;91.07;100069.72;5051404;28;20035;-51
2021/11/05 04:25:00;;;;;;;82.72;19.98;;;;;;;11.04;90.20;100068.53;5051116;28;20071;-50
2021/11/05 04:27:25;;;;;;;63.95;20.67;;;;;;;10.91;90.67;100081.78;5050900;28;20461;-51
2021/11/05 04:29:51;;;;;;;52.40;20.08;;;;;;;10.93;91.33;100082.41;5049562;28;20025;-50
2021/11/05 04:32:16;;;;;;;78.10;21.33;;;;;;;10.92;91.67;100078.91;5050808;28;20457;-51
2021/11/05 04:34:41;;;;;;;63.53;20.95;;;;;;;10.78;91.50;100069.22;5051049;28;20202;-49
2021/11/05 04:37:07;;;;;;;75.65;21.40;;;;;;;10.76;92.70;100074.72;5051163;28;20025;-50
2021/11/05 04:39:32;;;;;;;44.75;18.83;;;;;;;10.78;91.38;100084.38;5050949;28;20029;-49
2021/11/05 04:41:58;;;;;;;46.88;19.45;;;;;;;10.78;92.23;100087.03;5050511;28;20033;-50
2021/11/05 04:44:24;;;;;;;55.38;20.88;;;;;;;10.98;90.64;100082.63;5050711;28;20033;-50
2021/11/05 04:46:49;;;;;;;90.60;20.08;;;;;;;11.03;91.37;100090.03;5050751;28;20067;-49
2021/11/05 04:49:15;;;;;;;57.45;20.77;;;;;;;10.84;91.63;100095.03;5050991;28;20028;-49
2021/11/05 04:51:40;;;;;;;50.78;19.48;;;;;;;10.99;91.57;100092.25;5050318;28;20032;-50
2021/11/05 04:54:06;;;;;;;56.42;21.55;;;;;;;10.86;92.69;100095.66;5050597;28;20024;-49
2021/11/05 04:56:32;;;;;;;53.03;19.75;;;;;;;10.73;92.29;100108.91;5051069;28;20052;-51
2021/11/05 04:58:58;;;;;;;62.08;21.30;;;;;;;10.79;92.54;100108.13;5050661;28;20025;-49
2021/11/05 05:01:23;;;;;;;52.13;19.65;;;;;;;10.84;92.38;100110.22;5050774;28;20051;-53
2021/11/05 05:03:49;;;;;;;98.55;37.15;;;;;;;10.87;92.41;100115.97;5050506;28;20052;-52
2021/11/05 05:06:14;;;;;;;86.63;38.70;;;;;;;10.88;91.85;100114.94;5050300;28;20109;-52
2021/11/05 05:08:40;;;;;;;88.68;40.75;;;;;;;10.92;92.11;100115.38;5050208;28;20150;-51
2021/11/05 05:11:05;;;;;;;78.38;35.70;;;;;;;11.74;88.37;100114.44;5050182;28;20438;-49
2021/11/05 05:13:31;;;;;;;49.28;19.35;;;;;;;11.30;89.39;100112.25;5050114;28;20066;-49
2021/11/05 05:15:56;;;;;;;51.85;20.05;;;;;;;11.05;91.13;100119.94;5049844;28;20392;-52
2021/11/05 05:18:22;;;;;;;67.05;20.85;;;;;;;10.98;91.72;100122.56;5050220;28;20037;-49
2021/11/05 05:20:47;;;;;;;57.58;20.73;;;;;;;10.91;91.36;100113.75;5050271;28;20059;-49
2021/11/05 05:23:13;;;;;;;62.00;20.88;;;;;;;10.88;91.92;100111.44;5050104;28;20029;-49
2021/11/05 05:25:38;;;;;;;55.17;20.70;;;;;;;10.81;91.70;100108.75;5050539;28;20036;-51
2021/11/05 05:28:04;;;;;;;53.22;21.40;;;;;;;10.99;91.54;100118.88;5045516;28;20511;-51
2021/11/05 05:30:30;;;;;;;67.00;21.10;;;;;;;10.92;91.59;100115.38;5050261;28;20115;-51
2021/11/05 05:32:55;;;;;;;69.00;20.55;;;;;;;10.88;92.11;100120.25;5039581;28;20131;-51
2021/11/05 05:35:21;;;;;;;60.78;19.25;;;;;;;10.81;93.02;100121.22;5030367;28;20029;-51
2021/11/05 05:37:47;;;;;;;60.30;21.13;;;;;;;10.65;93.01;100130.34;5030474;28;20029;-51
2021/11/05 05:40:14;;;;;;;58.38;19.45;;;;;;;10.74;91.98;100126.53;5030015;28;20041;-51
2021/11/05 05:42:39;;;;;;;54.17;19.73;;;;;;;10.73;92.43;100124.88;5029143;28;20079;-50
2021/11/05 05:45:06;;;;;;;65.90;22.48;;;;;;;10.88;92.59;100132.75;5028067;28;20033;-50
2021/11/05 05:47:31;;;;;;;86.25;21.35;;;;;;;10.82;92.54;100123.72;5029565;28;20504;-49
2021/11/05 05:49:56;;;;;;;64.18;19.27;;;;;;;10.61;93.20;100121.13;5031918;28;20021;-51
2021/11/05 05:52:22;;;;;;;86.72;21.13;;;;;;;10.57;94.39;100123.34;5048962;28;20030;-48
2021/11/05 05:54:47;;;;;;;78.60;21.13;;;;;;;10.72;93.22;100128.56;5048908;28;20429;-51
2021/11/05 05:57:13;;;;;;;66.30;21.92;;;;;;;10.63;94.53;100135.06;5047517;28;20074;-49
2021/11/05 05:59:39;;;;;;;65.25;20.17;;;;;;;10.58;95.36;100138.28;5047812;28;20033;-51
2021/11/05 06:02:05;;;;;;;58.58;20.90;;;;;;;10.66;93.80;100145.28;5048144;28;20029;-51
2021/11/05 06:04:31;;;;;;;55.03;20.88;;;;;;;10.89;93.44;100155.69;5049558;28;20365;-52
2021/11/05 06:06:57;;;;;;;57.17;21.67;;;;;;;11.08;92.40;100154.16;5049208;28;20104;-50
2021/11/05 06:09:22;;;;;;;57.75;21.40;;;;;;;11.01;92.01;100150.66;5049631;28;20377;-51
2021/11/05 06:11:48;;;;;;;72.50;22.40;;;;;;;10.99;92.76;100160.69;5051821;28;20029;-51
2021/11/05 06:14:13;;;;;;;61.75;21.77;;;;;;;11.06;92.48;100166.84;5053422;28;20143;-52
2021/11/05 06:16:40;;;;;;;66.30;22.75;;;;;;;11.12;92.20;100171.41;5053558;28;20162;-51
2021/11/05 06:19:06;;;;;;;135.80;64.50;;;;;;;11.19;92.24;100168.78;5053693;28;20194;-51
2021/11/05 06:21:32;;;;;;;69.70;27.40;;;;;;;11.20;90.29;100170.44;5053437;28;20648;-49
2021/11/05 06:23:57;;;;;;;92.00;36.53;;;;;;;11.30;91.53;100177.03;5053722;28;20044;-49
2021/11/05 06:26:23;;;;;;;78.97;30.30;;;;;;;11.23;92.71;100170.84;5052699;28;20124;-50
2021/11/05 06:28:48;;;;;;;66.60;22.88;;;;;;;11.25;91.86;100165.31;5052723;28;20029;-52
2021/11/05 06:31:14;;;;;;;76.90;23.50;;;;;;;11.39;90.72;100174.22;5052581;28;20453;-52
2021/11/05 06:33:39;;;;;;;74.72;22.77;;;;;;;11.42;90.44;100161.28;5052534;28;20055;-50
2021/11/05 06:36:05;;;;;;;64.13;22.88;;;;;;;11.19;91.59;100166.09;5051970;28;20465;-49
2021/11/05 06:38:30;;;;;;;81.07;23.92;;;;;;;11.11;92.80;100169.75;5052402;28;20106;-52
2021/11/05 06:40:57;;;;;;;61.15;23.02;;;;;;;11.12;92.02;100174.88;5051745;28;20106;-51
2021/11/05 06:43:22;;;;;;;75.53;25.20;;;;;;;11.34;92.64;100164.94;5052139;28;20054;-51
2021/11/05 06:45:48;;;;;;;66.63;24.65;;;;;;;11.46;90.73;100167.03;5051695;28;20541;-52
2021/11/05 06:48:14;;;;;;;76.07;24.02;;;;;;;11.38;91.03;100172.56;5051822;28;20021;-51
2021/11/05 06:50:42;;;;;;;68.72;23.58;;;;;;;11.38;91.00;100170.69;5049947;28;20111;-50
2021/11/05 06:53:07;;;;;;;68.25;24.92;;;;;;;11.40;90.98;100157.19;5040548;28;20017;-52
2021/11/05 06:55:32;;;;;;;65.00;24.45;;;;;;;11.29;90.72;100177.22;5051697;28;20017;-49
2021/11/05 06:57:58;;;;;;;60.50;24.13;;;;;;;11.15;92.05;100187.78;5049522;28;20032;-49
2021/11/05 07:00:23;;;;;;;69.43;24.05;;;;;;;11.14;92.08;100164.88;5050737;28;20095;-50
2021/11/05 07:02:49;;;;;;;74.45;24.30;;;;;;;11.13;91.87;100181.03;5051038;28;20021;-49
2021/11/05 07:05:15;;;;;;;70.47;23.90;;;;;;;11.19;91.58;100187.41;5051097;28;20025;-51
2021/11/05 07:07:41;;;;;;;69.70;25.08;;;;;;;11.22;91.91;100171.06;5051090;28;20064;-48
2021/11/05 07:10:07;;;;;;;64.75;24.88;;;;;;;11.13;92.53;100176.53;5064065;28;20025;-50
2021/11/05 07:12:33;;;;;;;58.80;23.40;;;;;;;11.22;92.20;100185.19;5068205;28;20663;-50
2021/11/05 07:14:58;;;;;;;70.28;25.63;;;;;;;11.39;91.60;100182.22;5054037;28;20021;-50
2021/11/05 07:17:24;;;;;;;74.85;26.58;;;;;;;11.68;89.46;100194.41;5065113;28;20058;-51
2021/11/05 07:19:49;;;;;;;64.50;22.90;;;;;;;11.58;89.18;100201.97;5058593;28;20186;-48
2021/11/05 07:22:15;;;;;;;71.05;24.65;;;;;;;11.44;90.94;100209.06;5050056;28;20032;-50
2021/11/05 07:24:41;;;;;;;70.85;26.38;;;;;;;11.52;90.78;100207.06;5065554;28;20479;-50
2021/11/05 07:27:06;;;;;;;66.82;25.52;;;;;;;11.60;90.65;100216.72;5053450;28;20278;-49
2021/11/05 07:29:32;;;;;;;76.07;26.42;;;;;;;11.73;89.78;100199.97;5064554;28;20083;-49
2021/11/05 07:31:59;;;;;;;69.50;25.05;;;;;;;11.47;91.25;100208.69;5060339;28;20038;-49
2021/11/05 07:34:30;;;;;;;70.60;25.15;;;;;;;11.59;91.18;100207.06;5056233;28;20041;-52
2021/11/05 07:37:03;;;;;;;116.70;51.15;;;;;;;11.52;92.05;100200.91;5066948;28;20442;-51
2021/11/05 07:39:28;;;;;;;75.40;27.95;;;;;;;11.65;91.41;100200.97;5056209;28;20586;-49
2021/11/05 07:41:54;;;;;;;69.35;27.90;;;;;;;11.69;91.08;100196.88;5061298;28;20029;-49
2021/11/05 07:44:19;;;;;;;76.18;27.65;;;;;;;11.66;91.82;100202.59;5065051;28;20024;-51
2021/11/05 07:46:47;;;;;;;75.32;26.67;;;;;;;11.88;90.66;100199.78;5055179;28;20025;-50
2021/11/05 07:49:16;;;;;;;70.95;26.02;;;;;;;11.88;90.08;100205.13;5070128;28;20055;-39
2021/11/05 07:51:41;;;;;;;68.07;25.65;;;;;;;11.70;90.98;100209.19;5063830;28;20100;-39
2021/11/05 07:54:07;;;;;;;69.75;26.33;;;;;;;11.79;90.62;100199.16;5062680;28;20020;-39
2021/11/05 07:56:34;;;;;;;67.90;26.73;;;;;;;11.64;90.29;100178.00;5056341;28;20025;-38
2021/11/05 07:59:00;;;;;;;66.60;26.65;;;;;;;11.62;90.92;100201.34;5066985;28;20511;-38
2021/11/05 08:01:25;;;;;;;63.17;25.05;;;;;;;11.63;91.79;100204.84;5056322;28;20036;-40
2021/11/05 08:03:51;;;;;;;68.97;27.67;;;;;;;11.82;90.48;100197.94;5061638;28;20032;-38
2021/11/05 08:06:16;;;;;;;67.40;25.95;;;;;;;11.69;91.05;100210.22;5063389;28;20037;-38
2021/11/05 08:08:42;;;;;;;60.85;25.90;;;;;;;11.83;90.93;100191.59;5054864;28;20016;-38
2021/11/05 08:11:07;;;;;;;69.38;27.35;;;;;;;11.84;90.37;100207.41;5052259;28;20456;-38
2021/11/05 08:13:33;;;;;;;67.32;27.10;;;;;;;11.89;90.35;100199.63;5063292;28;20481;-38
2021/11/05 08:15:58;;;;;;;67.75;26.92;;;;;;;11.95;89.46;100168.66;5060302;28;20079;-38
2021/11/05 08:18:24;;;;;;;64.13;26.92;;;;;;;12.08;88.55;100181.22;5056412;28;20036;-38
2021/11/05 08:20:49;;;;;;;71.82;28.20;;;;;;;12.00;90.38;100190.22;5051218;28;20355;-39
2021/11/05 08:23:15;;;;;;;84.45;34.97;;;;;;;12.04;89.53;100182.66;5065760;28;20024;-39
2021/11/05 08:25:43;;;;;;;96.18;39.60;;;;;;;12.11;89.99;100176.31;5057698;28;20113;-39
2021/11/05 08:28:09;;;;;;;76.68;31.20;;;;;;;12.08;88.77;100171.34;5058486;28;20067;-39
2021/11/05 08:30:34;;;;;;;66.82;26.92;;;;;;;12.11;89.17;100189.63;5065296;28;20495;-39
2021/11/05 08:33:00;;;;;;;72.38;27.63;;;;;;;11.97;90.34;100190.63;5052838;28;20061;-39
2021/11/05 08:35:27;;;;;;;66.60;27.35;;;;;;;12.06;89.45;100176.06;5064263;28;20039;-39
2021/11/05 08:37:52;;;;;;;69.65;28.80;;;;;;;12.06;89.43;100188.59;5048625;28;20051;-39
2021/11/05 08:40:18;;;;;;;67.68;27.65;;;;;;;12.23;88.69;100192.53;5062595;28;20021;-39
2021/11/05 08:42:45;;;;;;;72.75;29.52;;;;;;;12.17;88.45;100193.34;5053377;28;20021;-39
2021/11/05 08:45:10;;;;;;;74.47;29.27;;;;;;;12.18;88.47;100189.63;5036609;28;20046;-39
2021/11/05 08:47:37;;;;;;;75.75;29.52;;;;;;;12.37;88.37;100201.34;5062365;28;20036;-39
2021/11/05 08:50:17;;;;;;;69.43;29.88;;;;;;;12.39;88.59;100185.16;5059882;28;20032;-39
2021/11/05 08:52:42;;;;;;;;;;;;;;;12.22;88.62;100190.91;5070005;28;20028;-38
2021/11/05 08:55:08;;;;;;;67.68;29.08;;;;;;;12.36;87.81;100182.91;5053112;28;19914;-38
2021/11/05 08:57:34;;;;;;;72.35;29.83;;;;;;;12.39;86.82;100167.28;5062600;28;20052;-38
2021/11/05 09:00:01;;;;;;;76.68;31.27;;;;;;;12.26;88.40;100189.47;5060274;28;20105;-39
2021/11/05 09:02:27;;;;;;;80.22;31.08;;;;;;;12.34;88.07;100161.75;5069586;28;20028;-38
2021/11/05 09:04:54;;;;;;;78.57;31.77;;;;;;;12.31;88.75;100170.16;5052983;28;20060;-38
2021/11/05 09:07:19;;;;;;;77.18;30.30;;;;;;;12.26;88.51;100173.44;5068471;28;20400;-39
2021/11/05 09:09:45;;;;;;;74.45;30.15;;;;;;;12.26;89.34;100186.78;5057259;28;20032;-38
2021/11/05 09:12:10;;;;;;;77.82;31.27;;;;;;;12.41;88.75;100183.91;5060068;28;20078;-38
2021/11/05 09:14:36;;;;;;;77.65;31.05;;;;;;;12.48;87.82;100173.25;5053579;28;20025;-38
2021/11/05 09:17:02;;;;;;;79.82;31.25;;;;;;;12.62;87.07;100166.91;5065773;28;20652;-38
2021/11/05 09:19:28;;;;;;;84.28;31.58;;;;;;;12.48;88.03;100157.22;5054646;28;20059;-38
2021/11/05 09:21:53;;;;;;;91.70;32.78;;;;;;;12.43;88.32;100162.34;5068060;28;20028;-38
2021/11/05 09:24:19;;;;;;;81.93;31.63;;;;;;;12.30;88.13;100161.34;5056100;28;20043;-38
2021/11/05 09:26:44;;;;;;;77.20;31.20;;;;;;;12.41;87.98;100159.88;5065558;28;20107;-38
2021/11/05 09:29:10;;;;;;;79.40;31.00;;;;;;;12.36;88.75;100158.88;5052571;28;20035;-38
2021/11/05 09:31:35;;;;;;;78.82;31.67;;;;;;;12.35;89.43;100166.06;5062264;28;20491;-38
2021/11/05 09:34:01;;;;;;;78.22;32.03;;;;;;;12.42;88.75;100164.22;5048995;28;20053;-38
2021/11/05 09:36:26;;;;;;;85.63;31.60;;;;;;;12.51;88.34;100164.84;5049633;28;20487;-38
2021/11/05 09:38:52;;;;;;;85.53;31.67;;;;;;;12.52;88.25;100153.13;5049777;28;20087;-38
2021/11/05 09:41:17;;;;;;;77.32;32.38;;;;;;;12.20;88.76;100122.72;5049170;28;20408;-38
2021/11/05 09:43:43;;;;;;;82.47;32.33;;;;;;;12.38;88.39;100151.50;5048195;28;20025;-38
2021/11/05 09:46:09;;;;;;;83.18;33.53;;;;;;;12.50;88.35;100147.16;5051623;28;20029;-38
2021/11/05 09:48:37;;;;;;;83.25;30.80;;;;;;;12.35;88.44;100142.03;5053376;28;20044;-38
2021/11/05 09:51:08;;;;;;;86.90;32.95;;;;;;;12.49;87.72;100134.88;5053001;28;20032;-38
2021/11/05 09:53:37;;;;;;;83.20;32.55;;;;;;;12.54;87.11;100143.06;5052874;28;20489;-38
2021/11/05 09:56:04;;;;;;;78.05;32.63;;;;;;;12.49;87.86;100135.69;5052575;28;20108;-39
2021/11/05 09:58:29;;;;;;;81.15;31.77;;;;;;;12.55;87.75;100131.38;5052835;28;20201;-39
2021/11/05 10:00:55;;;;;;;80.95;32.47;;;;;;;12.49;88.18;100145.53;5052970;28;20025;-39
2021/11/05 10:03:20;;;;;;;94.90;34.58;;;;;;;12.49;89.07;100125.00;5052892;28;20021;-39
2021/11/05 10:05:46;;;;;;;85.78;32.20;;;;;;;12.58;87.70;100128.25;5051153;28;20029;-38
2021/11/05 10:08:12;;;;;;;78.72;32.08;;;;;;;12.57;87.96;100137.31;5035167;28;20365;-39
2021/11/05 10:10:41;;;;;;;83.57;32.17;;;;;;;12.75;87.58;100122.50;5016738;28;20066;-38
2021/11/05 10:13:11;;;;;;;84.68;31.35;;;;;;;12.42;88.39;100126.84;5052762;28;20409;-38
2021/11/05 10:15:44;;;;;;;82.25;32.42;;;;;;;12.49;88.09;100124.19;5052808;28;20510;-38
2021/11/05 10:18:14;;;;;;;84.75;33.10;;;;;;;12.59;87.89;100115.75;5051593;28;20025;-39
2021/11/05 10:20:40;;;;;;;92.75;33.85;;;;;;;12.59;87.67;100118.44;5052756;28;20412;-40
2021/11/05 10:23:06;;;;;;;86.63;32.75;;;;;;;12.84;86.64;100115.91;5052448;28;20053;-39
2021/11/05 10:25:44;;;;;;;84.70;33.45;;;;;;;12.89;86.31;100114.25;5052592;28;20021;-39
2021/11/05 10:28:23;;;;;;;81.43;31.98;;;;;;;12.73;87.24;100111.22;5052348;28;20025;-39
2021/11/05 10:30:51;;;;;;;75.55;32.03;;;;;;;12.58;87.89;100098.91;5052489;28;20149;-39
2021/11/05 10:33:18;;;;;;;74.22;31.23;;;;;;;12.76;86.91;100108.94;5052232;28;20554;-39
2021/11/05 10:35:46;;;;;;;74.60;31.88;;;;;;;12.64;87.31;100098.09;5052482;28;20053;-39
2021/11/05 10:38:12;;;;;;;67.82;30.40;;;;;;;12.79;86.78;100097.00;5052613;28;20017;-38
2021/11/05 10:40:42;;;;;;;68.53;30.85;;;;;;;12.77;87.16;100091.88;5051922;28;20020;-38
2021/11/05 10:43:08;;;;;;;67.75;30.02;;;;;;;12.50;87.77;100075.91;5051878;28;20017;-38
2021/11/05 10:45:36;;;;;;;66.43;30.67;;;;;;;12.95;86.14;100099.25;5050626;28;20032;-39
2021/11/05 10:48:03;;;;;;;66.15;31.17;;;;;;;12.87;86.23;100088.75;5050559;28;20049;-39
2021/11/05 10:50:31;;;;;;;71.13;31.75;;;;;;;12.78;86.72;100085.50;5052102;28;20099;-39
2021/11/05 10:53:10;;;;;;;66.03;32.63;;;;;;;12.84;86.56;100084.66;5052022;28;20158;-39
2021/11/05 10:55:50;;;;;;;65.78;31.33;;;;;;;12.75;86.96;100085.94;5051282;28;20095;-39
2021/11/05 10:58:28;;;;;;;63.88;31.33;;;;;;;12.83;85.93;100087.53;5051989;28;20031;-38
2021/11/05 11:01:16;;;;;;;59.05;30.48;;;;;;;12.95;86.10;100095.75;5052221;28;20032;-38
2021/11/05 11:03:46;;;;;;;56.45;28.13;;;;;;;12.79;86.14;100087.13;5051833;28;20025;-38
2021/11/05 11:06:18;;;;;;;54.75;28.27;;;;;;;12.80;86.23;100083.44;5052071;28;20028;-38